createdAt,value
2019-03-01T00:00:36.324Z,50.50
2019-03-01T00:01:36.293Z,52.40
2019-03-01T00:02:36.264Z,54.30
2019-03-01T00:03:36.236Z,55.20
2019-03-01T00:04:36.208Z,53.50
2019-03-01T00:05:36.176Z,54.40
2019-03-01T00:06:36.149Z,51.60
2019-03-01T00:07:36.121Z,57.10
2019-03-01T00:08:36.091Z,53.60
2019-03-01T00:09:36.060Z,51.90
2019-03-01T00:10:36.033Z,54.50
2019-03-01T00:11:36.011Z,52.70
2019-03-01T00:12:35.974Z,59.30
2019-03-01T00:13:35.944Z,54.90
2019-03-01T00:14:35.917Z,53.90
2019-03-01T00:15:35.890Z,53.90
2019-03-01T00:16:35.859Z,56.20
2019-03-01T00:17:35.839Z,53.80
2019-03-01T00:18:35.799Z,55.50
2019-03-01T00:19:35.772Z,55.30
2019-03-01T00:20:35.867Z,52.80
2019-03-01T00:21:35.713Z,52.20
2019-03-01T00:22:35.683Z,54.90
2019-03-01T00:23:35.656Z,52.30
2019-03-01T00:24:35.627Z,54.90
2019-03-01T00:25:35.595Z,57.20
2019-03-01T00:26:35.567Z,52.90
2019-03-01T00:27:35.538Z,53.30
2019-03-01T00:28:35.512Z,54.10
2019-03-01T00:29:35.480Z,56.90
2019-03-01T00:30:35.452Z,53.90
2019-03-01T00:31:35.422Z,51.80
2019-03-01T00:32:35.393Z,55.20
2019-03-01T00:33:35.364Z,51.00
2019-03-01T00:34:35.335Z,59.30
2019-03-01T00:35:35.305Z,53.80
2019-03-01T00:36:35.279Z,54.90
2019-03-01T00:37:35.247Z,55.70
2019-03-01T00:38:35.218Z,53.40
2019-03-01T00:39:35.192Z,55.70
2019-03-01T00:40:35.161Z,50.70
2019-03-01T00:41:35.131Z,54.20
2019-03-01T00:42:35.102Z,50.80
2019-03-01T00:43:35.074Z,59.30
2019-03-01T00:44:35.043Z,55.80
2019-03-01T00:45:35.015Z,54.60
2019-03-01T00:46:34.986Z,55.60
2019-03-01T00:47:34.955Z,59.50
2019-03-01T00:48:34.926Z,52.20
2019-03-01T00:49:34.896Z,56.40
2019-03-01T00:50:34.868Z,54.70
2019-03-01T00:51:34.840Z,55.30
2019-03-01T00:52:34.820Z,49.10
2019-03-01T00:53:34.781Z,55.40
2019-03-01T00:54:34.752Z,57.10
2019-03-01T00:55:34.722Z,60.00
2019-03-01T00:56:34.692Z,58.90
2019-03-01T00:57:34.664Z,55.80
2019-03-01T00:58:34.635Z,60.20
2019-03-01T00:59:34.605Z,59.20
2019-03-01T01:00:34.576Z,56.60
2019-03-01T01:01:34.545Z,54.30
2019-03-01T01:02:34.517Z,54.90
2019-03-01T01:03:34.488Z,55.20
2019-03-01T01:04:34.460Z,58.90
2019-03-01T01:05:34.430Z,52.60
2019-03-01T01:06:34.402Z,54.70
2019-03-01T01:07:34.371Z,51.80
2019-03-01T01:08:34.345Z,55.70
2019-03-01T01:09:34.313Z,52.00
2019-03-01T01:10:34.284Z,54.30
2019-03-01T01:11:34.255Z,57.60
2019-03-01T01:12:34.226Z,51.60
2019-03-01T01:13:34.197Z,56.00
2019-03-01T01:14:34.167Z,53.60
2019-03-01T01:15:34.140Z,55.80
2019-03-01T01:16:34.110Z,55.20
2019-03-01T01:17:34.078Z,54.90
2019-03-01T01:18:34.050Z,61.00
2019-03-01T01:19:34.023Z,56.50
2019-03-01T01:20:33.992Z,59.90
2019-03-01T01:21:33.962Z,64.50
2019-03-01T01:22:33.934Z,58.60
2019-03-01T01:23:33.903Z,60.00
2019-03-01T01:24:33.876Z,64.30
2019-03-01T01:25:33.845Z,68.10
2019-03-01T01:26:33.819Z,73.50
2019-03-01T01:27:33.789Z,69.40
2019-03-01T01:28:33.757Z,71.50
2019-03-01T01:29:33.726Z,70.60
2019-03-01T01:30:33.697Z,80.10
2019-03-01T01:31:33.669Z,79.00
2019-03-01T01:32:33.639Z,85.70
2019-03-01T01:33:33.608Z,87.80
2019-03-01T01:34:33.578Z,87.30
2019-03-01T01:35:33.551Z,79.90
2019-03-01T01:36:33.522Z,84.30
2019-03-01T01:37:33.489Z,87.70
2019-03-01T01:38:33.460Z,83.30
2019-03-01T01:39:33.435Z,90.40
2019-03-01T01:40:33.401Z,93.20
2019-03-01T01:41:33.372Z,87.70
2019-03-01T01:42:33.342Z,94.90
2019-03-01T01:43:33.313Z,87.80
2019-03-01T01:44:33.282Z,90.10
2019-03-01T01:45:33.253Z,96.10
2019-03-01T01:46:33.223Z,91.00
2019-03-01T01:47:33.192Z,95.40
2019-03-01T01:48:33.170Z,93.60
2019-03-01T01:49:33.139Z,100.00
2019-03-01T01:50:33.106Z,97.50
2019-03-01T01:51:33.073Z,101.80
2019-03-01T01:52:33.045Z,108.40
2019-03-01T01:53:33.014Z,110.90
2019-03-01T01:54:32.986Z,104.40
2019-03-01T01:55:32.953Z,110.90
2019-03-01T01:56:32.925Z,107.40
2019-03-01T01:57:32.898Z,99.40
2019-03-01T01:58:32.864Z,117.70
2019-03-01T01:59:32.835Z,107.40
2019-03-01T02:00:32.804Z,109.50
2019-03-01T02:01:32.774Z,104.80
2019-03-01T02:02:32.744Z,116.50
2019-03-01T02:03:32.715Z,112.10
2019-03-01T02:04:32.684Z,114.60
2019-03-01T02:05:32.654Z,106.00
2019-03-01T02:06:32.625Z,109.20
2019-03-01T02:07:32.605Z,124.30
2019-03-01T02:08:32.568Z,109.40
2019-03-01T02:09:32.536Z,104.00
2019-03-01T02:10:32.513Z,102.80
2019-03-01T02:11:32.476Z,116.50
2019-03-01T02:12:32.448Z,111.00
2019-03-01T02:13:32.417Z,102.30
2019-03-01T02:14:32.386Z,138.50
2019-03-01T02:15:32.358Z,133.10
2019-03-01T02:16:32.328Z,144.50
2019-03-01T02:17:32.298Z,133.60
2019-03-01T02:18:32.268Z,134.10
2019-03-01T02:19:32.237Z,132.30
2019-03-01T02:20:32.208Z,145.10
2019-03-01T02:21:32.179Z,124.70
2019-03-01T02:22:32.148Z,134.50
2019-03-01T02:23:32.120Z,139.90
2019-03-01T02:24:32.090Z,153.70
2019-03-01T02:25:32.060Z,142.60
2019-03-01T02:26:32.029Z,133.40
2019-03-01T02:27:32.000Z,118.50
2019-03-01T02:28:31.972Z,114.20
2019-03-01T02:29:31.948Z,122.90
2019-03-01T02:30:31.911Z,129.60
2019-03-01T02:31:31.888Z,123.10
2019-03-01T02:32:31.855Z,130.40
2019-03-01T02:33:31.822Z,129.30
2019-03-01T02:34:31.792Z,129.30
2019-03-01T02:35:31.763Z,146.40
2019-03-01T02:36:31.733Z,123.70
2019-03-01T02:37:31.715Z,128.30
2019-03-01T02:38:31.675Z,124.00
2019-03-01T02:39:31.645Z,135.80
2019-03-01T02:40:31.615Z,124.70
2019-03-01T02:41:31.586Z,133.10
2019-03-01T02:42:31.553Z,130.10
2019-03-01T02:43:31.525Z,131.20
2019-03-01T02:44:31.494Z,129.80
2019-03-01T02:45:31.467Z,144.10
2019-03-01T02:46:31.436Z,137.60
2019-03-01T02:47:31.407Z,142.60
2019-03-01T02:48:31.376Z,153.70
2019-03-01T02:49:31.345Z,138.80
2019-03-01T02:50:31.318Z,120.60
2019-03-01T02:51:31.289Z,130.80
2019-03-01T02:52:31.265Z,126.50
2019-03-01T02:53:31.226Z,137.40
2019-03-01T02:54:31.199Z,138.30
2019-03-01T02:55:31.184Z,152.80
2019-03-01T02:56:31.139Z,138.90
2019-03-01T02:57:31.120Z,141.20
2019-03-01T02:58:31.080Z,166.20
2019-03-01T02:59:31.051Z,135.30
2019-03-01T03:00:31.022Z,136.50
2019-03-01T03:01:30.991Z,142.20
2019-03-01T03:02:30.961Z,136.20
2019-03-01T03:03:30.933Z,113.30
2019-03-01T03:04:30.902Z,144.60
2019-03-01T03:05:30.871Z,174.00
2019-03-01T03:06:30.843Z,182.40
2019-03-01T03:07:30.812Z,181.60
2019-03-01T03:08:30.785Z,172.00
2019-03-01T03:09:30.756Z,139.20
2019-03-01T03:10:30.735Z,156.80
2019-03-01T03:11:30.699Z,158.80
2019-03-01T03:12:30.666Z,130.80
2019-03-01T03:13:30.635Z,133.90
2019-03-01T03:14:30.607Z,146.40
2019-03-01T03:15:30.578Z,147.40
2019-03-01T03:16:30.547Z,145.10
2019-03-01T03:17:30.519Z,150.20
2019-03-01T03:18:30.491Z,143.80
2019-03-01T03:19:30.458Z,144.80
2019-03-01T03:20:30.430Z,146.80
2019-03-01T03:21:30.400Z,144.80
2019-03-01T03:22:30.368Z,150.90
2019-03-01T03:23:30.357Z,144.50
2019-03-01T03:24:30.314Z,148.00
2019-03-01T03:25:30.279Z,131.60
2019-03-01T03:26:30.254Z,148.00
2019-03-01T03:27:30.222Z,158.20
2019-03-01T03:28:30.191Z,144.70
2019-03-01T03:29:30.237Z,149.00
2019-03-01T03:30:30.133Z,156.50
2019-03-01T03:31:30.112Z,165.70
2019-03-01T03:32:30.073Z,154.10
2019-03-01T03:33:30.048Z,168.70
2019-03-01T03:34:30.012Z,160.30
2019-03-01T03:35:29.989Z,147.90
2019-03-01T03:36:29.953Z,173.00
2019-03-01T03:37:29.924Z,157.90
2019-03-01T03:38:29.894Z,156.80
2019-03-01T03:39:29.873Z,169.60
2019-03-01T03:40:29.835Z,172.90
2019-03-01T03:41:29.803Z,170.20
2019-03-01T03:42:29.772Z,153.70
2019-03-01T03:43:29.743Z,160.10
2019-03-01T03:44:29.714Z,161.70
2019-03-01T03:45:29.683Z,169.50
2019-03-01T03:46:29.652Z,174.40
2019-03-01T03:47:29.627Z,176.10
2019-03-01T03:48:29.593Z,162.60
2019-03-01T03:49:29.574Z,178.80
2019-03-01T03:50:29.540Z,173.20
2019-03-01T03:51:29.505Z,175.70
2019-03-01T03:52:29.475Z,175.40
2019-03-01T03:53:29.443Z,179.20
2019-03-01T03:54:29.413Z,172.50
2019-03-01T03:55:29.385Z,181.30
2019-03-01T03:56:29.354Z,184.30
2019-03-01T03:57:29.323Z,170.40
2019-03-01T03:58:29.293Z,169.50
2019-03-01T03:59:29.263Z,175.00
2019-03-01T04:00:29.234Z,174.10
2019-03-01T04:01:29.204Z,172.70
2019-03-01T04:02:29.176Z,175.40
2019-03-01T04:03:29.148Z,173.30
2019-03-01T04:04:29.113Z,175.80
2019-03-01T04:05:29.087Z,169.60
2019-03-01T04:06:29.076Z,183.10
2019-03-01T04:07:29.022Z,184.70
2019-03-01T04:08:28.993Z,188.80
2019-03-01T04:09:28.963Z,195.10
2019-03-01T04:10:28.934Z,187.00
2019-03-01T04:11:28.902Z,188.80
2019-03-01T04:12:28.873Z,173.70
2019-03-01T04:13:28.843Z,185.60
2019-03-01T04:14:28.816Z,180.60
2019-03-01T04:15:28.787Z,184.60
2019-03-01T04:16:28.755Z,196.70
2019-03-01T04:17:28.725Z,197.40
2019-03-01T04:18:28.698Z,176.40
2019-03-01T04:19:28.676Z,179.00
2019-03-01T04:20:28.651Z,163.60
2019-03-01T04:21:28.603Z,167.20
2019-03-01T04:22:28.577Z,150.80
2019-03-01T04:23:28.635Z,167.10
2019-03-01T04:24:28.516Z,149.10
2019-03-01T04:25:28.484Z,186.10
2019-03-01T04:26:28.458Z,164.70
2019-03-01T04:27:28.426Z,171.40
2019-03-01T04:28:28.395Z,174.60
2019-03-01T04:29:28.366Z,171.70
2019-03-01T04:30:28.336Z,173.40
2019-03-01T04:31:28.309Z,170.10
2019-03-01T04:32:28.279Z,195.70
2019-03-01T04:33:28.247Z,182.30
2019-03-01T04:34:28.220Z,173.00
2019-03-01T04:35:28.187Z,178.10
2019-03-01T04:36:28.160Z,160.40
2019-03-01T04:37:28.129Z,208.40
2019-03-01T04:38:28.102Z,183.90
2019-03-01T04:39:28.068Z,190.90
2019-03-01T04:40:28.040Z,183.80
2019-03-01T04:41:28.010Z,190.50
2019-03-01T04:42:27.980Z,187.50
2019-03-01T04:43:27.952Z,176.60
2019-03-01T04:44:27.921Z,199.00
2019-03-01T04:45:27.894Z,196.00
2019-03-01T04:46:27.862Z,225.10
2019-03-01T04:47:27.836Z,210.70
2019-03-01T04:48:27.802Z,225.90
2019-03-01T04:49:27.772Z,208.50
2019-03-01T04:50:27.744Z,209.90
2019-03-01T04:51:27.715Z,208.30
2019-03-01T04:52:27.684Z,197.70
2019-03-01T04:53:27.655Z,208.40
2019-03-01T04:54:27.624Z,195.10
2019-03-01T04:55:27.595Z,212.90
2019-03-01T04:56:27.568Z,219.30
2019-03-01T04:57:27.539Z,203.30
2019-03-01T04:58:27.505Z,211.10
2019-03-01T04:59:27.476Z,204.30
2019-03-01T05:00:27.447Z,232.90
2019-03-01T05:01:27.417Z,219.20
2019-03-01T05:02:27.388Z,211.20
2019-03-01T05:03:27.358Z,208.00
2019-03-01T05:04:27.330Z,225.30
2019-03-01T05:05:27.297Z,236.00
2019-03-01T05:06:27.269Z,236.80
2019-03-01T05:07:27.239Z,222.70
2019-03-01T05:08:27.460Z,211.70
2019-03-01T05:09:27.179Z,228.90
2019-03-01T05:10:27.151Z,220.90
2019-03-01T05:11:27.121Z,231.10
2019-03-01T05:12:27.089Z,228.80
2019-03-01T05:13:27.061Z,229.70
2019-03-01T05:14:27.035Z,219.80
2019-03-01T05:15:27.000Z,220.30
2019-03-01T05:16:26.971Z,231.90
2019-03-01T05:17:26.941Z,255.10
2019-03-01T05:18:26.911Z,235.30
2019-03-01T05:19:26.882Z,222.90
2019-03-01T05:20:26.853Z,240.70
2019-03-01T05:21:26.819Z,235.70
2019-03-01T05:22:26.792Z,223.00
2019-03-01T05:23:26.764Z,227.40
2019-03-01T05:24:26.731Z,248.60
2019-03-01T05:25:26.703Z,235.70
2019-03-01T05:26:26.671Z,239.00
2019-03-01T05:27:26.641Z,248.60
2019-03-01T05:28:26.612Z,227.80
2019-03-01T05:29:26.582Z,235.90
2019-03-01T05:30:26.557Z,230.20
2019-03-01T05:31:26.523Z,237.50
2019-03-01T05:32:26.491Z,217.40
2019-03-01T05:33:26.461Z,235.70
2019-03-01T05:34:26.431Z,237.30
2019-03-01T05:35:26.410Z,244.60
2019-03-01T05:36:26.374Z,238.10
2019-03-01T05:37:26.343Z,221.30
2019-03-01T05:38:26.315Z,259.30
2019-03-01T05:39:26.283Z,263.00
2019-03-01T05:40:26.253Z,248.00
2019-03-01T05:41:26.223Z,263.90
2019-03-01T05:42:26.196Z,276.00
2019-03-01T05:43:26.165Z,262.80
2019-03-01T05:44:26.135Z,265.10
2019-03-01T05:45:26.105Z,258.30
2019-03-01T05:46:26.074Z,278.90
2019-03-01T05:47:26.044Z,296.20
2019-03-01T05:48:26.019Z,257.70
2019-03-01T05:49:25.983Z,259.90
2019-03-01T05:50:25.954Z,237.80
2019-03-01T05:51:25.925Z,240.00
2019-03-01T05:52:25.897Z,215.60
2019-03-01T05:53:25.865Z,236.10
2019-03-01T05:54:25.837Z,235.80
2019-03-01T05:55:25.816Z,247.10
2019-03-01T05:56:25.813Z,261.10
2019-03-01T05:57:25.746Z,245.90
2019-03-01T05:58:25.717Z,271.60
2019-03-01T05:59:25.687Z,245.00
2019-03-01T06:00:25.659Z,258.40
2019-03-01T06:01:25.630Z,279.30
2019-03-01T06:02:25.599Z,268.10
2019-03-01T06:03:25.568Z,261.90
2019-03-01T06:04:25.543Z,276.30
2019-03-01T06:05:25.509Z,310.80
2019-03-01T06:06:25.480Z,289.80
2019-03-01T06:07:25.451Z,303.40
2019-03-01T06:08:25.422Z,307.00
2019-03-01T06:09:25.392Z,292.50
2019-03-01T06:10:25.361Z,282.50
2019-03-01T06:11:25.334Z,294.70
2019-03-01T06:12:25.305Z,297.40
2019-03-01T06:13:25.273Z,298.60
2019-03-01T06:14:25.243Z,300.80
2019-03-01T06:15:25.216Z,314.10
2019-03-01T06:16:25.187Z,308.40
2019-03-01T06:17:25.155Z,288.80
2019-03-01T06:18:25.125Z,297.20
2019-03-01T06:19:25.100Z,317.60
2019-03-01T06:20:25.068Z,284.80
2019-03-01T06:21:25.037Z,293.80
2019-03-01T06:22:25.008Z,290.70
2019-03-01T06:23:24.979Z,264.70
2019-03-01T06:24:24.950Z,275.80
2019-03-01T06:25:24.919Z,278.90
2019-03-01T06:26:24.891Z,290.60
2019-03-01T06:27:24.860Z,291.00
2019-03-01T06:28:24.830Z,307.40
2019-03-01T06:29:24.801Z,304.20
2019-03-01T06:30:24.771Z,299.90
2019-03-01T06:31:24.742Z,288.70
2019-03-01T06:32:24.712Z,274.40
2019-03-01T06:33:24.685Z,275.50
2019-03-01T06:34:24.652Z,248.00
2019-03-01T06:35:24.621Z,257.30
2019-03-01T06:36:24.595Z,283.70
2019-03-01T06:37:24.624Z,259.10
2019-03-01T06:38:24.532Z,262.00
2019-03-01T06:39:24.503Z,263.30
2019-03-01T06:40:24.474Z,247.40
2019-03-01T06:41:24.444Z,261.50
2019-03-01T06:42:24.414Z,280.00
2019-03-01T06:43:26.298Z,261.70
2019-03-01T06:44:24.355Z,249.40
2019-03-01T06:45:24.324Z,263.80
2019-03-01T06:46:24.294Z,254.90
2019-03-01T06:47:24.267Z,265.90
2019-03-01T06:48:24.235Z,253.10
2019-03-01T06:49:24.206Z,258.50
2019-03-01T06:50:24.176Z,236.70
2019-03-01T06:51:28.814Z,266.90
2019-03-01T06:52:24.117Z,307.40
2019-03-01T06:53:24.085Z,300.10
2019-03-01T06:54:24.057Z,284.50
2019-03-01T06:55:24.028Z,265.30
2019-03-01T06:56:23.998Z,277.40
2019-03-01T06:57:23.967Z,295.40
2019-03-01T06:58:23.938Z,266.30
2019-03-01T06:59:23.907Z,241.50
2019-03-01T07:00:23.880Z,270.80
2019-03-01T07:01:23.848Z,242.70
2019-03-01T07:02:23.818Z,251.00
2019-03-01T07:03:23.791Z,222.70
2019-03-01T07:04:23.763Z,247.20
2019-03-01T07:05:23.731Z,245.50
2019-03-01T07:06:23.701Z,257.50
2019-03-01T07:07:23.675Z,273.40
2019-03-01T07:08:23.642Z,249.30
2019-03-01T07:09:23.612Z,259.30
2019-03-01T07:10:23.581Z,250.60
2019-03-01T07:11:23.552Z,265.80
2019-03-01T07:12:23.525Z,241.60
2019-03-01T07:13:23.495Z,255.50
2019-03-01T07:14:23.484Z,221.80
2019-03-01T07:15:23.434Z,268.50
2019-03-01T07:16:23.404Z,241.50
2019-03-01T07:17:23.375Z,241.90
2019-03-01T07:18:23.347Z,258.40
2019-03-01T07:19:23.318Z,236.50
2019-03-01T07:20:23.288Z,275.20
2019-03-01T07:21:23.257Z,243.30
2019-03-01T07:22:23.225Z,288.10
2019-03-01T07:23:23.197Z,273.20
2019-03-01T07:24:23.216Z,278.20
2019-03-01T07:25:23.138Z,259.20
2019-03-01T07:26:23.109Z,259.80
2019-03-01T07:27:23.078Z,289.10
2019-03-01T07:28:23.050Z,265.10
2019-03-01T07:29:23.019Z,253.50
2019-03-01T07:30:22.992Z,279.30
2019-03-01T07:31:22.969Z,275.40
2019-03-01T07:32:22.931Z,300.20
2019-03-01T07:33:22.900Z,269.00
2019-03-01T07:34:22.874Z,265.60
2019-03-01T07:35:22.848Z,272.30
2019-03-01T07:36:22.813Z,259.80
2019-03-01T07:37:22.781Z,295.30
2019-03-01T07:38:22.752Z,312.30
2019-03-01T07:39:22.723Z,276.00
2019-03-01T07:40:22.692Z,242.10
2019-03-01T07:41:22.664Z,257.90
2019-03-01T07:42:22.634Z,275.80
2019-03-01T07:43:22.607Z,267.40
2019-03-01T07:44:22.575Z,311.50
2019-03-01T07:45:22.545Z,280.40
2019-03-01T07:46:22.752Z,299.70
2019-03-01T07:47:22.487Z,265.00
2019-03-01T07:48:22.456Z,260.70
2019-03-01T07:49:22.424Z,306.60
2019-03-01T07:50:22.396Z,312.40
2019-03-01T07:51:22.366Z,269.00
2019-03-01T07:52:22.337Z,265.80
2019-03-01T07:53:22.307Z,316.80
2019-03-01T07:54:22.551Z,318.80
2019-03-01T07:55:24.954Z,309.90
2019-03-01T07:56:22.220Z,286.50
2019-03-01T07:57:22.189Z,354.00
2019-03-01T07:58:25.688Z,380.60
2019-03-01T07:59:23.950Z,335.00
2019-03-01T08:00:22.099Z,347.10
2019-03-01T08:01:22.070Z,324.80
2019-03-01T08:02:22.041Z,329.50
2019-03-01T08:03:22.008Z,359.00
2019-03-01T08:04:23.760Z,308.30
2019-03-01T08:05:21.949Z,299.60
2019-03-01T08:06:21.919Z,306.00
2019-03-01T08:07:23.591Z,317.20
2019-03-01T08:08:21.860Z,345.60
2019-03-01T08:09:21.830Z,374.00
2019-03-01T08:10:22.904Z,309.80
2019-03-01T08:11:21.771Z,383.40
2019-03-01T08:12:21.741Z,416.40
2019-03-01T08:13:21.711Z,477.80
2019-03-01T08:14:24.612Z,397.50
2019-03-01T08:15:21.653Z,361.90
2019-03-01T08:16:21.631Z,336.00
2019-03-01T08:17:21.594Z,352.20
2019-03-01T08:18:21.564Z,340.70
2019-03-01T08:19:23.453Z,371.70
2019-03-01T08:20:21.507Z,340.80
2019-03-01T08:21:21.481Z,362.60
2019-03-01T08:22:24.856Z,312.00
2019-03-01T08:23:21.419Z,304.00
2019-03-01T08:24:21.389Z,280.00
2019-03-01T08:25:23.493Z,256.20
2019-03-01T08:26:21.329Z,287.50
2019-03-01T08:27:21.301Z,281.90
2019-03-01T08:28:21.874Z,292.70
2019-03-01T08:29:21.240Z,261.00
2019-03-01T08:30:21.211Z,266.70
2019-03-01T08:31:22.184Z,277.90
2019-03-01T08:32:21.152Z,287.70
2019-03-01T08:33:21.122Z,316.80
2019-03-01T08:34:21.092Z,300.10
2019-03-01T08:35:21.062Z,275.20
2019-03-01T08:36:21.034Z,279.80
2019-03-01T08:37:21.003Z,273.20
2019-03-01T08:38:20.975Z,289.70
2019-03-01T08:39:20.954Z,291.10
2019-03-01T08:40:20.933Z,300.50
2019-03-01T08:41:21.540Z,289.50
2019-03-01T08:42:20.858Z,254.50
2019-03-01T08:43:20.825Z,252.00
2019-03-01T08:44:22.927Z,247.70
2019-03-01T08:45:20.766Z,252.50
2019-03-01T08:46:20.737Z,254.10
2019-03-01T08:47:24.458Z,265.10
2019-03-01T08:48:20.678Z,275.20
2019-03-01T08:49:20.646Z,255.60
2019-03-01T08:50:20.617Z,265.90
2019-03-01T08:51:22.674Z,259.50
2019-03-01T08:52:20.558Z,245.70
2019-03-01T08:53:20.528Z,235.90
2019-03-01T08:54:22.891Z,258.20
2019-03-01T08:55:20.470Z,271.50
2019-03-01T08:56:26.073Z,281.80
2019-03-01T08:57:22.552Z,258.50
2019-03-01T08:58:20.380Z,237.40
2019-03-01T08:59:20.352Z,248.80
2019-03-01T09:00:23.040Z,237.00
2019-03-01T09:01:20.294Z,251.30
2019-03-01T09:02:20.265Z,250.60
2019-03-01T09:03:22.140Z,225.30
2019-03-01T09:04:21.572Z,222.00
2019-03-01T09:05:20.216Z,230.80
2019-03-01T09:06:20.143Z,237.10
2019-03-01T09:07:20.149Z,239.70
2019-03-01T09:08:20.085Z,229.10
2019-03-01T09:09:20.938Z,219.30
2019-03-01T09:10:20.030Z,215.00
2019-03-01T09:11:19.996Z,204.00
2019-03-01T09:12:19.968Z,204.30
2019-03-01T09:13:19.939Z,205.80
2019-03-01T09:14:22.772Z,198.00
2019-03-01T09:15:19.881Z,191.30
2019-03-01T09:16:19.851Z,208.10
2019-03-01T09:17:19.824Z,192.00
2019-03-01T09:18:19.791Z,194.50
2019-03-01T09:19:22.399Z,192.90
2019-03-01T09:20:19.732Z,185.40
2019-03-01T09:21:19.704Z,190.70
2019-03-01T09:22:19.681Z,183.90
2019-03-01T09:23:24.172Z,191.30
2019-03-01T09:24:19.617Z,168.10
2019-03-01T09:25:19.587Z,169.70
2019-03-01T09:26:20.131Z,177.30
2019-03-01T09:27:19.529Z,181.60
2019-03-01T09:28:19.503Z,181.80
2019-03-01T09:29:19.550Z,162.40
2019-03-01T09:30:19.442Z,181.50
2019-03-01T09:31:19.412Z,161.00
2019-03-01T09:32:19.384Z,154.70
2019-03-01T09:33:21.556Z,155.00
2019-03-01T09:34:19.326Z,148.50
2019-03-01T09:35:19.296Z,160.60
2019-03-01T09:36:21.380Z,156.40
2019-03-01T09:37:19.240Z,141.50
2019-03-01T09:38:19.209Z,142.30
2019-03-01T09:39:19.319Z,156.70
2019-03-01T09:40:19.153Z,159.30
2019-03-01T09:41:19.120Z,152.20
2019-03-01T09:42:19.091Z,152.50
2019-03-01T09:43:19.064Z,137.90
2019-03-01T09:44:19.033Z,136.00
2019-03-01T09:45:19.434Z,145.70
2019-03-01T09:46:20.882Z,141.80
2019-03-01T09:47:18.946Z,131.40
2019-03-01T09:48:18.930Z,131.80
2019-03-01T09:49:21.402Z,135.50
2019-03-01T09:50:18.871Z,130.90
2019-03-01T09:51:18.830Z,122.60
2019-03-01T09:52:20.419Z,124.00
2019-03-01T09:53:18.770Z,118.20
2019-03-01T09:54:18.740Z,119.50
2019-03-01T09:55:18.712Z,126.90
2019-03-01T09:56:18.683Z,116.50
2019-03-01T09:57:18.654Z,120.60
2019-03-01T09:58:18.626Z,120.80
2019-03-01T09:59:18.596Z,131.30
2019-03-01T10:00:18.566Z,126.50
2019-03-01T10:01:18.540Z,121.90
2019-03-01T10:02:18.506Z,105.70
2019-03-01T10:03:18.479Z,98.00
2019-03-01T10:04:18.504Z,98.90
2019-03-01T10:05:18.420Z,108.80
2019-03-01T10:06:18.390Z,104.10
2019-03-01T10:07:18.363Z,106.20
2019-03-01T10:08:18.332Z,104.50
2019-03-01T10:09:18.300Z,109.40
2019-03-01T10:10:18.271Z,104.70
2019-03-01T10:11:18.242Z,100.70
2019-03-01T10:12:18.213Z,114.20
2019-03-01T10:13:18.183Z,113.90
2019-03-01T10:14:19.730Z,102.80
2019-03-01T10:15:18.126Z,107.50
2019-03-01T10:16:18.094Z,106.20
2019-03-01T10:17:18.063Z,103.70
2019-03-01T10:18:18.036Z,101.50
2019-03-01T10:19:18.004Z,100.80
2019-03-01T10:20:17.975Z,106.40
2019-03-01T10:21:17.944Z,102.10
2019-03-01T10:22:17.914Z,112.30
2019-03-01T10:23:17.885Z,111.30
2019-03-01T10:24:17.854Z,102.90
2019-03-01T10:25:17.825Z,118.60
2019-03-01T10:26:17.794Z,106.00
2019-03-01T10:27:17.764Z,104.80
2019-03-01T10:28:17.735Z,108.90
2019-03-01T10:29:17.703Z,123.10
2019-03-01T10:30:17.673Z,113.30
2019-03-01T10:31:17.645Z,122.30
2019-03-01T10:32:17.613Z,123.20
2019-03-01T10:33:17.582Z,121.90
2019-03-01T10:34:17.552Z,115.50
2019-03-01T10:35:17.524Z,115.70
2019-03-01T10:36:17.493Z,113.10
2019-03-01T10:37:17.462Z,93.20
2019-03-01T10:38:17.433Z,102.00
2019-03-01T10:39:17.401Z,101.00
2019-03-01T10:40:17.375Z,96.20
2019-03-01T10:41:17.342Z,88.70
2019-03-01T10:42:17.312Z,86.50
2019-03-01T10:43:17.282Z,85.40
2019-03-01T10:44:17.251Z,78.40
2019-03-01T10:45:17.220Z,85.50
2019-03-01T10:46:17.189Z,82.70
2019-03-01T10:47:17.160Z,71.00
2019-03-01T10:48:17.130Z,81.60
2019-03-01T10:49:17.101Z,79.20
2019-03-01T10:50:17.066Z,61.70
2019-03-01T10:51:17.043Z,42.90
2019-03-01T10:52:17.007Z,54.40
2019-03-01T10:53:16.977Z,51.70
2019-03-01T10:54:16.952Z,51.70
2019-03-01T10:55:16.917Z,55.60
2019-03-01T10:56:16.885Z,55.90
2019-03-01T10:57:16.853Z,52.50
2019-03-01T10:58:16.824Z,51.10
2019-03-01T10:59:16.794Z,56.40
2019-03-01T11:00:16.765Z,56.30
2019-03-01T11:01:16.733Z,57.80
2019-03-01T11:02:16.701Z,56.80
2019-03-01T11:03:16.670Z,64.70
2019-03-01T11:04:16.641Z,56.80
2019-03-01T11:05:16.609Z,63.40
2019-03-01T11:06:16.580Z,55.80
2019-03-01T11:07:16.549Z,54.40
2019-03-01T11:08:16.519Z,53.60
2019-03-01T11:09:16.487Z,52.10
2019-03-01T11:10:16.457Z,52.50
2019-03-01T11:11:16.426Z,57.10
2019-03-01T11:12:16.399Z,51.10
2019-03-01T11:13:16.366Z,52.90
2019-03-01T11:14:16.336Z,48.60
2019-03-01T11:15:16.307Z,47.30
2019-03-01T11:16:16.277Z,50.10
2019-03-01T11:17:16.245Z,53.60
2019-03-01T11:18:16.215Z,47.60
2019-03-01T11:19:16.185Z,45.40
2019-03-01T11:20:16.154Z,47.70
2019-03-01T11:21:16.123Z,52.30
2019-03-01T11:22:16.094Z,45.00
2019-03-01T11:23:16.065Z,46.80
2019-03-01T11:24:16.036Z,46.80
2019-03-01T11:25:16.005Z,46.40
2019-03-01T11:26:15.975Z,38.70
2019-03-01T11:27:15.946Z,34.80
2019-03-01T11:28:15.917Z,41.30
2019-03-01T11:29:15.891Z,38.00
2019-03-01T11:30:15.858Z,40.70
2019-03-01T11:31:15.826Z,42.50
2019-03-01T11:32:15.801Z,41.00
2019-03-01T11:33:15.767Z,35.60
2019-03-01T11:34:15.740Z,36.90
2019-03-01T11:35:15.709Z,35.40
2019-03-01T11:36:15.680Z,46.30
2019-03-01T11:37:15.651Z,41.90
2019-03-01T11:38:15.621Z,35.30
2019-03-01T11:39:15.593Z,31.50
2019-03-01T11:40:15.562Z,33.40
2019-03-01T11:41:15.533Z,38.90
2019-03-01T11:42:15.505Z,36.60
2019-03-01T11:43:15.476Z,36.80
2019-03-01T11:44:15.447Z,35.70
2019-03-01T11:45:15.416Z,32.20
2019-03-01T11:46:15.388Z,35.40
2019-03-01T11:47:15.360Z,36.30
2019-03-01T11:48:15.330Z,29.80
2019-03-01T11:49:15.301Z,30.60
2019-03-01T11:50:15.271Z,32.00
2019-03-01T11:51:15.243Z,26.10
2019-03-01T11:52:15.213Z,29.30
2019-03-01T11:53:15.186Z,28.40
2019-03-01T11:54:15.156Z,25.50
2019-03-01T11:55:15.127Z,28.80
2019-03-01T11:56:15.103Z,27.60
2019-03-01T11:57:15.070Z,28.70
2019-03-01T11:58:15.041Z,32.00
2019-03-01T11:59:15.016Z,23.10
2019-03-01T12:00:14.985Z,28.30
2019-03-01T12:01:17.412Z,25.90
2019-03-01T12:02:14.929Z,22.00
2019-03-01T12:03:15.556Z,24.30
2019-03-01T12:04:14.869Z,25.70
2019-03-01T12:05:14.841Z,22.70
2019-03-01T12:06:14.809Z,23.80
2019-03-01T12:07:14.787Z,24.60
2019-03-01T12:08:14.751Z,23.70
2019-03-01T12:09:14.776Z,23.90
2019-03-01T12:10:14.693Z,24.70
2019-03-01T12:11:14.664Z,17.70
2019-03-01T12:12:14.636Z,22.30
2019-03-01T12:13:14.607Z,17.60
2019-03-01T12:14:14.578Z,17.70
2019-03-01T12:15:14.551Z,22.90
2019-03-01T12:16:14.522Z,23.80
2019-03-01T12:17:14.491Z,17.60
2019-03-01T12:18:14.465Z,15.90
2019-03-01T12:19:14.433Z,19.20
2019-03-01T12:20:14.414Z,17.50
2019-03-01T12:21:14.376Z,15.40
2019-03-01T12:22:17.072Z,18.00
2019-03-01T12:23:14.319Z,13.40
2019-03-01T12:24:14.288Z,16.50
2019-03-01T12:25:14.257Z,17.20
2019-03-01T12:26:14.230Z,19.90
2019-03-01T12:27:14.201Z,16.80
2019-03-01T12:28:14.173Z,15.20
2019-03-01T12:29:14.143Z,15.40
2019-03-01T12:30:14.113Z,13.60
2019-03-01T12:31:14.086Z,13.60
2019-03-01T12:32:14.058Z,13.40
2019-03-01T12:33:14.031Z,12.50
2019-03-01T12:34:13.997Z,9.90
2019-03-01T12:35:13.970Z,12.20